sensor_id;sensor_type;location;lat;lon;timestamp;pressure;altitude;pressure_sealevel;temperature;humidity
9009;BME280;62813;51.424;6.762;2022-10-16T00:01:20;100882.69;;;13.83;88.26
9009;BME280;62813;51.424;6.762;2022-10-16T00:03:47;100887.16;;;13.81;88.31
9009;BME280;62813;51.424;6.762;2022-10-16T00:06:15;100885.44;;;13.80;88.21
9009;BME280;62813;51.424;6.762;2022-10-16T00:08:42;100888.03;;;13.80;88.23
9009;BME280;62813;51.424;6.762;2022-10-16T00:11:12;100891.66;;;13.78;88.34
9009;BME280;62813;51.424;6.762;2022-10-16T00:13:41;100890.06;;;13.75;88.59
9009;BME280;62813;51.424;6.762;2022-10-16T00:16:09;100892.69;;;13.75;88.69
9009;BME280;62813;51.424;6.762;2022-10-16T00:18:37;100891.84;;;13.75;88.94
9009;BME280;62813;51.424;6.762;2022-10-16T00:21:15;100899.72;;;13.73;88.33
9009;BME280;62813;51.424;6.762;2022-10-16T00:23:43;100903.25;;;13.72;88.54
9009;BME280;62813;51.424;6.762;2022-10-16T00:26:13;100894.66;;;13.70;88.85
9009;BME280;62813;51.424;6.762;2022-10-16T00:28:39;100901.56;;;13.71;88.45
9009;BME280;62813;51.424;6.762;2022-10-16T00:31:10;100902.50;;;13.70;88.48
9009;BME280;62813;51.424;6.762;2022-10-16T00:33:38;100893.91;;;13.68;88.61
9009;BME280;62813;51.424;6.762;2022-10-16T00:36:07;100894.91;;;13.66;88.77
9009;BME280;62813;51.424;6.762;2022-10-16T00:38:33;100887.06;;;13.66;88.73
9009;BME280;62813;51.424;6.762;2022-10-16T00:41:00;100891.44;;;13.65;88.90
9009;BME280;62813;51.424;6.762;2022-10-16T00:43:48;100895.75;;;13.66;88.77
9009;BME280;62813;51.424;6.762;2022-10-16T00:46:19;100888.84;;;13.65;88.74
9009;BME280;62813;51.424;6.762;2022-10-16T00:49:08;100893.13;;;13.66;88.71
9009;BME280;62813;51.424;6.762;2022-10-16T00:51:47;100890.53;;;13.66;88.46
9009;BME280;62813;51.424;6.762;2022-10-16T00:54:24;100881.94;;;13.64;88.72
9009;BME280;62813;51.424;6.762;2022-10-16T00:56:53;100874.13;;;13.64;88.94
9009;BME280;62813;51.424;6.762;2022-10-16T00:59:29;100882.69;;;13.66;88.41
9009;BME280;62813;51.424;6.762;2022-10-16T01:01:56;100881.00;;;13.65;88.48
9009;BME280;62813;51.424;6.762;2022-10-16T01:04:24;100886.22;;;13.65;88.38
9009;BME280;62813;51.424;6.762;2022-10-16T01:06:57;100888.16;;;13.61;88.39
9009;BME280;62813;51.424;6.762;2022-10-16T01:12:28;100886.53;;;13.59;88.77
9009;BME280;62813;51.424;6.762;2022-10-16T01:21:33;100894.63;;;13.54;88.39
9009;BME280;62813;51.424;6.762;2022-10-16T01:24:45;100895.56;;;13.53;88.92
9009;BME280;62813;51.424;6.762;2022-10-16T01:32:33;100901.91;;;13.48;88.65
9009;BME280;62813;51.424;6.762;2022-10-16T01:35:11;100898.38;;;13.49;88.90
9009;BME280;62813;51.424;6.762;2022-10-16T01:37:43;100897.38;;;13.51;89.11
9009;BME280;62813;51.424;6.762;2022-10-16T01:40:15;100893.78;;;13.54;88.77
9009;BME280;62813;51.424;6.762;2022-10-16T01:42:47;100888.31;;;13.58;89.02
9009;BME280;62813;51.424;6.762;2022-10-16T01:45:18;100882.13;;;13.61;89.01
9009;BME280;62813;51.424;6.762;2022-10-16T01:47:47;100884.56;;;13.64;88.57
9009;BME280;62813;51.424;6.762;2022-10-16T01:50:18;100889.78;;;13.64;88.47
9009;BME280;62813;51.424;6.762;2022-10-16T01:52:48;100881.00;;;13.65;88.74
9009;BME280;62813;51.424;6.762;2022-10-16T01:55:25;100885.16;;;13.69;88.33
9009;BME280;62813;51.424;6.762;2022-10-16T01:57:53;100892.81;;;13.72;88.10
9009;BME280;62813;51.424;6.762;2022-10-16T02:00:22;100884.94;;;13.74;87.82
9009;BME280;62813;51.424;6.762;2022-10-16T02:02:51;100892.75;;;13.74;88.16
9009;BME280;62813;51.424;6.762;2022-10-16T02:05:24;100902.28;;;13.75;88.15
9009;BME280;62813;51.424;6.762;2022-10-16T02:07:52;100906.66;;;13.74;87.71
9009;BME280;62813;51.424;6.762;2022-10-16T02:10:19;100904.94;;;13.73;87.29
9009;BME280;62813;51.424;6.762;2022-10-16T02:13:00;100900.91;;;13.68;87.22
9009;BME280;62813;51.424;6.762;2022-10-16T02:15:27;100905.31;;;13.66;87.51
9009;BME280;62813;51.424;6.762;2022-10-16T02:17:53;100903.72;;;13.63;87.42
9009;BME280;62813;51.424;6.762;2022-10-16T02:20:25;100906.50;;;13.60;87.25
9009;BME280;62813;51.424;6.762;2022-10-16T02:22:54;100912.56;;;13.60;87.58
9009;BME280;62813;51.424;6.762;2022-10-16T02:25:26;100911.78;;;13.58;87.28
9009;BME280;62813;51.424;6.762;2022-10-16T02:27:59;100911.72;;;13.60;87.64
9009;BME280;62813;51.424;6.762;2022-10-16T02:30:32;100910.00;;;13.59;87.34
9009;BME280;62813;51.424;6.762;2022-10-16T02:33:02;100917.84;;;13.59;87.58
9009;BME280;62813;51.424;6.762;2022-10-16T02:35:30;100910.00;;;13.59;87.16
9009;BME280;62813;51.424;6.762;2022-10-16T02:37:57;100913.56;;;13.58;87.45
9009;BME280;62813;51.424;6.762;2022-10-16T02:40:25;100917.00;;;13.58;87.12
9009;BME280;62813;51.424;6.762;2022-10-16T02:42:53;100910.94;;;13.58;87.20
9009;BME280;62813;51.424;6.762;2022-10-16T02:45:21;100911.88;;;13.57;87.29
9009;BME280;62813;51.424;6.762;2022-10-16T02:47:48;100911.09;;;13.55;87.34
9009;BME280;62813;51.424;6.762;2022-10-16T02:50:16;100909.34;;;13.55;86.89
9009;BME280;62813;51.424;6.762;2022-10-16T02:52:42;100905.81;;;13.56;87.31
9009;BME280;62813;51.424;6.762;2022-10-16T02:55:09;100900.50;;;13.58;86.61
9009;BME280;62813;51.424;6.762;2022-10-16T02:57:35;100907.50;;;13.57;86.73
9009;BME280;62813;51.424;6.762;2022-10-16T03:00:04;100907.41;;;13.59;87.11
9009;BME280;62813;51.424;6.762;2022-10-16T03:02:31;100902.19;;;13.59;86.68
9009;BME280;62813;51.424;6.762;2022-10-16T03:04:57;100905.59;;;13.61;86.78
9009;BME280;62813;51.424;6.762;2022-10-16T03:07:24;100917.00;;;13.58;86.79
9009;BME280;62813;51.424;6.762;2022-10-16T03:09:52;100907.41;;;13.59;86.72
9009;BME280;62813;51.424;6.762;2022-10-16T03:12:18;100915.22;;;13.59;86.50
9009;BME280;62813;51.424;6.762;2022-10-16T03:14:45;100914.38;;;13.58;86.66
9009;BME280;62813;51.424;6.762;2022-10-16T03:17:11;100916.16;;;13.58;86.47
9009;BME280;62813;51.424;6.762;2022-10-16T03:19:39;100910.94;;;13.58;86.54
9009;BME280;62813;51.424;6.762;2022-10-16T03:22:05;100918.84;;;13.56;86.41
9009;BME280;62813;51.424;6.762;2022-10-16T03:24:32;100922.28;;;13.57;86.10
9009;BME280;62813;51.424;6.762;2022-10-16T03:26:58;100911.09;;;13.55;85.96
9009;BME280;62813;51.424;6.762;2022-10-16T03:29:25;100913.81;;;13.53;85.91
9009;BME280;62813;51.424;6.762;2022-10-16T03:31:52;100911.25;;;13.52;85.92
9009;BME280;62813;51.424;6.762;2022-10-16T03:34:18;100918.19;;;13.53;86.11
9009;BME280;62813;51.424;6.762;2022-10-16T03:36:45;100910.41;;;13.51;86.18
9009;BME280;62813;51.424;6.762;2022-10-16T03:39:11;100913.00;;;13.51;86.40
9009;BME280;62813;51.424;6.762;2022-10-16T03:41:38;100919.84;;;13.54;85.94
9009;BME280;62813;51.424;6.762;2022-10-16T03:44:05;100914.78;;;13.51;85.50
9009;BME280;62813;51.424;6.762;2022-10-16T03:46:32;100919.25;;;13.49;85.60
9009;BME280;62813;51.424;6.762;2022-10-16T03:48:58;100921.09;;;13.47;85.63
9009;BME280;62813;51.424;6.762;2022-10-16T03:51:25;100918.63;;;13.44;85.61
9009;BME280;62813;51.424;6.762;2022-10-16T03:53:51;100929.97;;;13.43;85.81
9009;BME280;62813;51.424;6.762;2022-10-16T03:56:18;100931.75;;;13.42;85.70
9009;BME280;62813;51.424;6.762;2022-10-16T03:58:45;100927.38;;;13.43;85.50
9009;BME280;62813;51.424;6.762;2022-10-16T04:01:11;100929.03;;;13.44;85.41
9009;BME280;62813;51.424;6.762;2022-10-16T04:03:38;100918.63;;;13.44;85.28
9009;BME280;62813;51.424;6.762;2022-10-16T04:06:05;100915.09;;;13.45;85.23
9009;BME280;62813;51.424;6.762;2022-10-16T04:08:31;100926.34;;;13.45;85.52
9009;BME280;62813;51.424;6.762;2022-10-16T04:11:01;100937.66;;;13.46;85.23
9009;BME280;62813;51.424;6.762;2022-10-16T04:13:27;100929.03;;;13.44;85.04
9009;BME280;62813;51.424;6.762;2022-10-16T04:15:54;100943.75;;;13.45;85.09
9009;BME280;62813;51.424;6.762;2022-10-16T04:18:21;100939.56;;;13.42;84.94
9009;BME280;62813;51.424;6.762;2022-10-16T04:20:47;100938.88;;;13.39;85.35
9009;BME280;62813;51.424;6.762;2022-10-16T04:23:14;100940.63;;;13.38;85.44
9009;BME280;62813;51.424;6.762;2022-10-16T04:25:40;100944.16;;;13.37;84.98
9009;BME280;62813;51.424;6.762;2022-10-16T04:28:06;100951.91;;;13.39;85.02
9009;BME280;62813;51.424;6.762;2022-10-16T04:30:34;100960.59;;;13.39;85.07
9009;BME280;62813;51.424;6.762;2022-10-16T04:33:00;100965.84;;;13.38;84.73
9009;BME280;62813;51.424;6.762;2022-10-16T04:35:47;100977.13;;;13.38;84.60
9009;BME280;62813;51.424;6.762;2022-10-16T04:38:13;100976.28;;;13.38;84.79
9009;BME280;62813;51.424;6.762;2022-10-16T04:40:41;100978.13;;;13.35;84.66
9009;BME280;62813;51.424;6.762;2022-10-16T04:43:08;100973.84;;;13.34;85.11
9009;BME280;62813;51.424;6.762;2022-10-16T04:45:35;100971.38;;;13.31;84.69
9009;BME280;62813;51.424;6.762;2022-10-16T04:48:02;100969.66;;;13.30;85.15
9009;BME280;62813;51.424;6.762;2022-10-16T04:50:28;100985.31;;;13.30;84.82
9009;BME280;62813;51.424;6.762;2022-10-16T04:52:55;100974.00;;;13.31;85.25
9009;BME280;62813;51.424;6.762;2022-10-16T04:55:21;100980.94;;;13.31;84.95
9009;BME280;62813;51.424;6.762;2022-10-16T04:57:48;100987.91;;;13.30;84.54
9009;BME280;62813;51.424;6.762;2022-10-16T05:00:15;100987.91;;;13.30;84.90
9009;BME280;62813;51.424;6.762;2022-10-16T05:02:41;100994.91;;;13.30;84.93
9009;BME280;62813;51.424;6.762;2022-10-16T05:05:08;101000.06;;;13.31;84.84
9009;BME280;62813;51.424;6.762;2022-10-16T05:07:34;101002.59;;;13.33;84.74
9009;BME280;62813;51.424;6.762;2022-10-16T05:10:01;100999.97;;;13.33;84.74
9009;BME280;62813;51.424;6.762;2022-10-16T05:12:27;101000.81;;;13.33;84.79
9009;BME280;62813;51.424;6.762;2022-10-16T05:14:54;101012.19;;;13.32;84.81
9009;BME280;62813;51.424;6.762;2022-10-16T05:17:25;101008.56;;;13.35;84.78
9009;BME280;62813;51.424;6.762;2022-10-16T05:19:52;101005.97;;;13.35;84.84
9009;BME280;62813;51.424;6.762;2022-10-16T05:22:19;101015.47;;;13.36;84.66
9009;BME280;62813;51.424;6.762;2022-10-16T05:24:45;101012.84;;;13.36;84.79
9009;BME280;62813;51.424;6.762;2022-10-16T05:27:12;101016.47;;;13.33;84.88
9009;BME280;62813;51.424;6.762;2022-10-16T05:29:46;101004.34;;;13.32;84.85
9009;BME280;62813;51.424;6.762;2022-10-16T05:32:17;101009.56;;;13.32;84.87
9009;BME280;62813;51.424;6.762;2022-10-16T05:34:44;101017.44;;;13.31;84.97
9009;BME280;62813;51.424;6.762;2022-10-16T05:37:12;101016.47;;;13.33;85.07
9009;BME280;62813;51.424;6.762;2022-10-16T05:39:38;101020.00;;;13.32;84.99
9009;BME280;62813;51.424;6.762;2022-10-16T05:42:05;101022.53;;;13.34;85.10
9009;BME280;62813;51.424;6.762;2022-10-16T05:44:32;101033.16;;;13.29;85.02
9009;BME280;62813;51.424;6.762;2022-10-16T05:47:19;101028.88;;;13.28;85.04
9009;BME280;62813;51.424;6.762;2022-10-16T05:49:47;101032.31;;;13.29;84.83
9009;BME280;62813;51.424;6.762;2022-10-16T05:52:13;101030.72;;;13.26;85.37
9009;BME280;62813;51.424;6.762;2022-10-16T05:54:40;101044.81;;;13.22;85.22
9009;BME280;62813;51.424;6.762;2022-10-16T05:57:06;101048.16;;;13.24;85.29
9009;BME280;62813;51.424;6.762;2022-10-16T05:59:33;101062.91;;;13.25;85.26
9009;BME280;62813;51.424;6.762;2022-10-16T06:01:59;101061.28;;;13.23;84.94
9009;BME280;62813;51.424;6.762;2022-10-16T06:04:26;101060.44;;;13.22;85.11
9009;BME280;62813;51.424;6.762;2022-10-16T06:06:53;101065.81;;;13.19;85.34
9009;BME280;62813;51.424;6.762;2022-10-16T06:09:19;101072.00;;;13.17;85.25
9009;BME280;62813;51.424;6.762;2022-10-16T06:11:46;101072.84;;;13.17;85.59
9009;BME280;62813;51.424;6.762;2022-10-16T06:14:13;101076.22;;;13.19;85.35
9009;BME280;62813;51.424;6.762;2022-10-16T06:16:39;101078.69;;;13.22;85.29
9009;BME280;62813;51.424;6.762;2022-10-16T06:19:06;101075.97;;;13.25;85.28
9009;BME280;62813;51.424;6.762;2022-10-16T06:21:34;101078.41;;;13.28;85.22
9009;BME280;62813;51.424;6.762;2022-10-16T06:24:01;101084.38;;;13.30;85.06
9009;BME280;62813;51.424;6.762;2022-10-16T06:26:29;101085.19;;;13.32;85.45
9009;BME280;62813;51.424;6.762;2022-10-16T06:28:58;101082.50;;;13.34;84.84
9009;BME280;62813;51.424;6.762;2022-10-16T06:31:26;101086.94;;;13.32;85.08
9009;BME280;62813;51.424;6.762;2022-10-16T06:33:55;101099.91;;;13.33;84.94
9009;BME280;62813;51.424;6.762;2022-10-16T06:36:23;101098.06;;;13.35;85.28
9009;BME280;62813;51.424;6.762;2022-10-16T06:38:50;101095.94;;;13.44;84.64
9009;BME280;62813;51.424;6.762;2022-10-16T06:41:19;101101.94;;;13.46;84.77
9009;BME280;62813;51.424;6.762;2022-10-16T06:43:46;101103.63;;;13.47;84.47
9009;BME280;62813;51.424;6.762;2022-10-16T06:46:15;101114.06;;;13.47;84.54
9009;BME280;62813;51.424;6.762;2022-10-16T06:48:42;101115.94;;;13.43;85.12
9009;BME280;62813;51.424;6.762;2022-10-16T06:51:11;101127.22;;;13.44;84.97
9009;BME280;62813;51.424;6.762;2022-10-16T06:53:40;101128.28;;;13.40;84.67
9009;BME280;62813;51.424;6.762;2022-10-16T06:56:27;101140.50;;;13.39;85.33
9009;BME280;62813;51.424;6.762;2022-10-16T06:58:56;101146.66;;;13.37;85.04
9009;BME280;62813;51.424;6.762;2022-10-16T07:01:23;101149.28;;;13.37;85.28
9009;BME280;62813;51.424;6.762;2022-10-16T07:03:50;101151.03;;;13.36;85.71
9009;BME280;62813;51.424;6.762;2022-10-16T07:06:18;101160.44;;;13.40;85.66
9009;BME280;62813;51.424;6.762;2022-10-16T07:08:46;101165.56;;;13.42;85.35
9009;BME280;62813;51.424;6.762;2022-10-16T07:11:16;101167.25;;;13.43;85.25
9009;BME280;62813;51.424;6.762;2022-10-16T07:13:44;101178.59;;;13.42;85.19
9009;BME280;62813;51.424;6.762;2022-10-16T07:16:21;101179.44;;;13.42;85.51
9009;BME280;62813;51.424;6.762;2022-10-16T07:18:48;101187.28;;;13.42;85.46
9009;BME280;62813;51.424;6.762;2022-10-16T07:21:20;101189.97;;;13.41;85.33
9009;BME280;62813;51.424;6.762;2022-10-16T07:23:54;101185.50;;;13.43;85.62
9009;BME280;62813;51.424;6.762;2022-10-16T07:26:22;101191.56;;;13.43;85.85
9009;BME280;62813;51.424;6.762;2022-10-16T07:28:49;101190.28;;;13.52;85.44
9009;BME280;62813;51.424;6.762;2022-10-16T07:31:18;101199.53;;;13.59;85.76
9009;BME280;62813;51.424;6.762;2022-10-16T07:33:46;101192.81;;;13.72;85.13
9009;BME280;62813;51.424;6.762;2022-10-16T07:36:15;101194.88;;;13.84;84.76
9009;BME280;62813;51.424;6.762;2022-10-16T07:38:42;101199.91;;;13.87;84.78
9009;BME280;62813;51.424;6.762;2022-10-16T07:41:12;101205.72;;;13.94;84.38
9009;BME280;62813;51.424;6.762;2022-10-16T07:43:39;101206.16;;;14.04;84.18
9009;BME280;62813;51.424;6.762;2022-10-16T07:46:06;101208.09;;;14.18;83.75
9009;BME280;62813;51.424;6.762;2022-10-16T07:48:34;101213.78;;;14.26;83.01
9009;BME280;62813;51.424;6.762;2022-10-16T07:51:03;101223.84;;;14.33;83.24
9009;BME280;62813;51.424;6.762;2022-10-16T07:53:30;101229.53;;;14.41;82.68
9009;BME280;62813;51.424;6.762;2022-10-16T07:55:58;101225.56;;;14.52;82.72
9009;BME280;62813;51.424;6.762;2022-10-16T07:58:27;101229.72;;;14.56;82.42
9009;BME280;62813;51.424;6.762;2022-10-16T08:00:54;101228.38;;;14.64;82.33
9009;BME280;62813;51.424;6.762;2022-10-16T08:03:21;101229.84;;;14.70;81.46
9009;BME280;62813;51.424;6.762;2022-10-16T08:05:48;101225.88;;;14.80;81.23
9009;BME280;62813;51.424;6.762;2022-10-16T08:08:18;101238.47;;;14.89;80.99
9009;BME280;62813;51.424;6.762;2022-10-16T08:10:45;101245.91;;;14.97;80.75
9009;BME280;62813;51.424;6.762;2022-10-16T08:13:12;101259.59;;;15.02;80.75
9009;BME280;62813;51.424;6.762;2022-10-16T08:15:42;101255.84;;;15.08;80.39
9009;BME280;62813;51.424;6.762;2022-10-16T08:18:10;101245.97;;;15.13;79.81
9009;BME280;62813;51.424;6.762;2022-10-16T08:20:37;101242.91;;;15.22;79.71
9009;BME280;62813;51.424;6.762;2022-10-16T08:23:04;101256.56;;;15.27;79.54
9009;BME280;62813;51.424;6.762;2022-10-16T08:25:34;101256.34;;;15.32;78.46
9009;BME280;62813;51.424;6.762;2022-10-16T08:28:07;101270.03;;;15.37;77.89
9009;BME280;62813;51.424;6.762;2022-10-16T08:30:34;101267.00;;;15.44;77.68
9009;BME280;62813;51.424;6.762;2022-10-16T08:33:01;101281.88;;;15.44;77.65
9009;BME280;62813;51.424;6.762;2022-10-16T08:35:28;101279.91;;;15.47;77.58
9009;BME280;62813;51.424;6.762;2022-10-16T08:37:54;101284.06;;;15.51;77.16
9009;BME280;62813;51.424;6.762;2022-10-16T08:40:26;101295.91;;;15.59;77.82
9009;BME280;62813;51.424;6.762;2022-10-16T08:43:00;101298.19;;;15.65;77.61
9009;BME280;62813;51.424;6.762;2022-10-16T08:50:47;101300.91;;;15.79;76.68
9009;BME280;62813;51.424;6.762;2022-10-16T08:53:30;101311.22;;;15.82;77.04
9009;BME280;62813;51.424;6.762;2022-10-16T08:55:57;101311.50;;;15.93;76.99
9009;BME280;62813;51.424;6.762;2022-10-16T08:58:30;101312.91;;;15.99;77.03
9009;BME280;62813;51.424;6.762;2022-10-16T09:01:03;101319.59;;;16.04;76.27
9009;BME280;62813;51.424;6.762;2022-10-16T09:14:11;101316.56;;;16.28;74.52
9009;BME280;62813;51.424;6.762;2022-10-16T09:16:56;101319.94;;;16.30;74.83
9009;BME280;62813;51.424;6.762;2022-10-16T09:19:30;101329.16;;;16.37;74.78
9009;BME280;62813;51.424;6.762;2022-10-16T09:21:59;101328.75;;;16.45;74.75
9009;BME280;62813;51.424;6.762;2022-10-16T09:24:26;101324.84;;;16.52;74.63
9009;BME280;62813;51.424;6.762;2022-10-16T09:26:54;101332.47;;;16.56;74.61
9009;BME280;62813;51.424;6.762;2022-10-16T09:29:21;101333.78;;;16.63;73.94
9009;BME280;62813;51.424;6.762;2022-10-16T09:31:50;101329.22;;;16.67;73.23
9009;BME280;62813;51.424;6.762;2022-10-16T09:34:30;101327.53;;;16.66;72.89
9009;BME280;62813;51.424;6.762;2022-10-16T09:37:04;101345.78;;;16.68;73.24
9009;BME280;62813;51.424;6.762;2022-10-16T09:39:44;101336.47;;;16.78;72.76
9009;BME280;62813;51.424;6.762;2022-10-16T09:42:15;101340.00;;;16.77;72.13
9009;BME280;62813;51.424;6.762;2022-10-16T09:44:49;101344.06;;;16.82;72.18
9009;BME280;62813;51.424;6.762;2022-10-16T09:47:18;101335.94;;;16.87;71.54
9009;BME280;62813;51.424;6.762;2022-10-16T09:50:00;101341.91;;;16.89;71.18
9009;BME280;62813;51.424;6.762;2022-10-16T09:52:29;101334.66;;;16.94;70.85
9009;BME280;62813;51.424;6.762;2022-10-16T09:55:00;101338.84;;;16.97;70.42
9009;BME280;62813;51.424;6.762;2022-10-16T09:57:28;101343.34;;;16.95;70.62
9009;BME280;62813;51.424;6.762;2022-10-16T09:59:57;101341.97;;;17.03;70.00
9009;BME280;62813;51.424;6.762;2022-10-16T10:02:34;101346.00;;;17.09;70.29
9009;BME280;62813;51.424;6.762;2022-10-16T10:05:01;101349.31;;;17.12;70.13
9009;BME280;62813;51.424;6.762;2022-10-16T10:07:32;101344.81;;;17.14;69.73
9009;BME280;62813;51.424;6.762;2022-10-16T10:10:03;101348.19;;;17.16;69.71
9009;BME280;62813;51.424;6.762;2022-10-16T10:12:31;101343.69;;;17.18;69.92
9009;BME280;62813;51.424;6.762;2022-10-16T10:15:07;101342.59;;;17.23;69.54
9009;BME280;62813;51.424;6.762;2022-10-16T10:17:46;101344.25;;;17.24;69.40
9009;BME280;62813;51.424;6.762;2022-10-16T10:20:34;101346.53;;;17.30;69.06
9009;BME280;62813;51.424;6.762;2022-10-16T10:23:15;101348.75;;;17.22;68.94
9009;BME280;62813;51.424;6.762;2022-10-16T10:31:18;101353.47;;;17.31;68.54
9009;BME280;62813;51.424;6.762;2022-10-16T10:36:46;101355.28;;;17.44;68.27
9009;BME280;62813;51.424;6.762;2022-10-16T10:47:01;101349.34;;;17.27;68.01
9009;BME280;62813;51.424;6.762;2022-10-16T10:52:48;101356.09;;;17.31;68.14
9009;BME280;62813;51.424;6.762;2022-10-16T10:55:39;101360.31;;;17.33;68.14
9009;BME280;62813;51.424;6.762;2022-10-16T11:01:14;101360.44;;;17.46;66.36
9009;BME280;62813;51.424;6.762;2022-10-16T11:06:41;101351.63;;;17.47;66.53
9009;BME280;62813;51.424;6.762;2022-10-16T11:11:47;101356.16;;;17.59;67.31
9009;BME280;62813;51.424;6.762;2022-10-16T11:14:19;101365.91;;;17.57;67.07
9009;BME280;62813;51.424;6.762;2022-10-16T11:16:52;101364.59;;;17.64;66.42
9009;BME280;62813;51.424;6.762;2022-10-16T11:22:26;101366.38;;;17.78;65.91
9009;BME280;62813;51.424;6.762;2022-10-16T11:27:39;101362.44;;;17.85;66.09
9009;BME280;62813;51.424;6.762;2022-10-16T11:31:40;101368.53;;;17.86;66.06
9009;BME280;62813;51.424;6.762;2022-10-16T11:34:28;101374.53;;;17.88;64.81
9009;BME280;62813;51.424;6.762;2022-10-16T11:37:11;101372.56;;;17.91;64.92
9009;BME280;62813;51.424;6.762;2022-10-16T11:39:39;101377.81;;;17.91;64.15
9009;BME280;62813;51.424;6.762;2022-10-16T11:42:13;101370.88;;;17.90;63.73
9009;BME280;62813;51.424;6.762;2022-10-16T11:45:02;101366.28;;;17.94;63.32
9009;BME280;62813;51.424;6.762;2022-10-16T11:53:16;101384.28;;;18.14;64.07
9009;BME280;62813;51.424;6.762;2022-10-16T11:55:48;101381.44;;;18.17;63.38
9009;BME280;62813;51.424;6.762;2022-10-16T12:08:58;101393.28;;;18.10;63.55
9009;BME280;62813;51.424;6.762;2022-10-16T12:14:19;101388.69;;;18.14;63.72
9009;BME280;62813;51.424;6.762;2022-10-16T12:17:38;101389.25;;;18.19;62.76
9009;BME280;62813;51.424;6.762;2022-10-16T12:22:29;101392.81;;;18.04;62.54
9009;BME280;62813;51.424;6.762;2022-10-16T12:24:57;101395.91;;;17.96;62.96
9009;BME280;62813;51.424;6.762;2022-10-16T12:27:29;101382.41;;;17.88;63.08
9009;BME280;62813;51.424;6.762;2022-10-16T12:30:01;101376.13;;;17.90;63.78
9009;BME280;62813;51.424;6.762;2022-10-16T12:32:39;101382.22;;;17.91;63.72
9009;BME280;62813;51.424;6.762;2022-10-16T12:35:26;101383.72;;;17.95;63.85
9009;BME280;62813;51.424;6.762;2022-10-16T12:37:53;101382.59;;;17.99;63.72
9009;BME280;62813;51.424;6.762;2022-10-16T12:42:53;101391.56;;;18.23;63.64
9009;BME280;62813;51.424;6.762;2022-10-16T12:45:27;101395.59;;;18.43;63.19
9009;BME280;62813;51.424;6.762;2022-10-16T12:47:55;101390.69;;;18.51;63.32
9009;BME280;62813;51.424;6.762;2022-10-16T12:50:37;60685.94;;;-141.29;100.00
9009;BME280;62813;51.424;6.762;2022-10-16T12:53:21;60685.94;;;-141.29;100.00
9009;BME280;62813;51.424;6.762;2022-10-16T12:56:24;60685.94;;;-141.29;100.00
9009;BME280;62813;51.424;6.762;2022-10-16T13:04:43;60685.94;;;-141.29;100.00
9009;BME280;62813;51.424;6.762;2022-10-16T13:07:37;60685.94;;;-141.29;100.00
9009;BME280;62813;51.424;6.762;2022-10-16T13:10:28;60685.94;;;-141.29;100.00
9009;BME280;62813;51.424;6.762;2022-10-16T13:16:34;60685.94;;;-141.29;100.00
9009;BME280;62813;51.424;6.762;2022-10-16T13:19:20;60685.94;;;-141.29;100.00
9009;BME280;62813;51.424;6.762;2022-10-16T13:22:24;60685.94;;;-141.29;100.00
9009;BME280;62813;51.424;6.762;2022-10-16T13:25:34;60685.94;;;-141.29;100.00
9009;BME280;62813;51.424;6.762;2022-10-16T13:28:07;60685.94;;;-141.29;100.00
9009;BME280;62813;51.424;6.762;2022-10-16T13:30:43;60685.94;;;-141.29;100.00
9009;BME280;62813;51.424;6.762;2022-10-16T13:33:17;60685.94;;;-141.29;100.00
9009;BME280;62813;51.424;6.762;2022-10-16T13:35:51;60685.94;;;-141.29;100.00
9009;BME280;62813;51.424;6.762;2022-10-16T13:38:23;60685.94;;;-141.29;100.00
9009;BME280;62813;51.424;6.762;2022-10-16T13:40:58;60685.94;;;-141.29;100.00
9009;BME280;62813;51.424;6.762;2022-10-16T13:43:38;60685.94;;;-141.29;100.00
9009;BME280;62813;51.424;6.762;2022-10-16T13:46:15;60685.94;;;-141.29;100.00
9009;BME280;62813;51.424;6.762;2022-10-16T13:48:42;60685.94;;;-141.29;100.00
9009;BME280;62813;51.424;6.762;2022-10-16T13:51:12;60685.94;;;-141.29;100.00
9009;BME280;62813;51.424;6.762;2022-10-16T13:53:40;60685.94;;;-141.29;100.00
9009;BME280;62813;51.424;6.762;2022-10-16T13:56:11;60685.94;;;-141.29;100.00
9009;BME280;62813;51.424;6.762;2022-10-16T13:58:38;60685.94;;;-141.29;100.00
9009;BME280;62813;51.424;6.762;2022-10-16T14:01:16;60685.94;;;-141.29;100.00
9009;BME280;62813;51.424;6.762;2022-10-16T14:03:44;60685.94;;;-141.29;100.00
9009;BME280;62813;51.424;6.762;2022-10-16T14:06:14;60685.94;;;-141.29;100.00
9009;BME280;62813;51.424;6.762;2022-10-16T14:08:44;60685.94;;;-141.29;100.00
9009;BME280;62813;51.424;6.762;2022-10-16T14:11:12;60685.94;;;-141.29;100.00
9009;BME280;62813;51.424;6.762;2022-10-16T14:13:46;60685.94;;;-141.29;100.00
9009;BME280;62813;51.424;6.762;2022-10-16T14:16:31;60685.94;;;-141.29;100.00
9009;BME280;62813;51.424;6.762;2022-10-16T14:19:02;60685.94;;;-141.29;100.00
9009;BME280;62813;51.424;6.762;2022-10-16T14:21:33;60685.94;;;-141.29;100.00
9009;BME280;62813;51.424;6.762;2022-10-16T14:24:11;60685.94;;;-141.29;100.00
9009;BME280;62813;51.424;6.762;2022-10-16T14:26:43;60685.94;;;-141.29;100.00
9009;BME280;62813;51.424;6.762;2022-10-16T14:29:20;60685.94;;;-141.29;100.00
9009;BME280;62813;51.424;6.762;2022-10-16T14:34:27;60685.94;;;-141.29;100.00
9009;BME280;62813;51.424;6.762;2022-10-16T14:36:55;60685.94;;;-141.29;100.00
9009;BME280;62813;51.424;6.762;2022-10-16T14:39:23;60685.94;;;-141.29;100.00
9009;BME280;62813;51.424;6.762;2022-10-16T14:41:55;60685.94;;;-141.29;100.00
9009;BME280;62813;51.424;6.762;2022-10-16T14:44:31;60685.94;;;-141.29;100.00
9009;BME280;62813;51.424;6.762;2022-10-16T14:47:07;60685.94;;;-141.29;100.00
9009;BME280;62813;51.424;6.762;2022-10-16T14:49:35;60685.94;;;-141.29;100.00
9009;BME280;62813;51.424;6.762;2022-10-16T14:52:08;60685.94;;;-141.29;100.00
9009;BME280;62813;51.424;6.762;2022-10-16T14:54:34;60685.94;;;-141.29;100.00
9009;BME280;62813;51.424;6.762;2022-10-16T14:57:01;60685.94;;;-141.29;100.00
9009;BME280;62813;51.424;6.762;2022-10-16T14:59:40;60685.94;;;-141.29;100.00